sensor_id;sensor_type;location;lat;lon;timestamp;pressure;altitude;pressure_sealevel;temperature;humidity
47670;BME280;33408;52.062;11.722;2023-03-14T00:02:20;98754.06;;;10.84;100.00
47670;BME280;33408;52.062;11.722;2023-03-14T00:04:47;98736.25;;;10.78;100.00
47670;BME280;33408;52.062;11.722;2023-03-14T00:07:14;98746.91;;;10.72;100.00
47670;BME280;33408;52.062;11.722;2023-03-14T00:09:41;98768.34;;;10.58;100.00
47670;BME280;33408;52.062;11.722;2023-03-14T00:12:09;98762.00;;;10.46;100.00
47670;BME280;33408;52.062;11.722;2023-03-14T00:14:36;98754.41;;;10.43;100.00
47670;BME280;33408;52.062;11.722;2023-03-14T00:17:03;98746.88;;;10.38;100.00
47670;BME280;33408;52.062;11.722;2023-03-14T00:19:29;98755.78;;;10.33;100.00
47670;BME280;33408;52.062;11.722;2023-03-14T00:21:56;98748.84;;;10.33;100.00
47670;BME280;33408;52.062;11.722;2023-03-14T00:24:22;98752.34;;;10.32;100.00
47670;BME280;33408;52.062;11.722;2023-03-14T00:26:49;98756.66;;;10.32;100.00
47670;BME280;33408;52.062;11.722;2023-03-14T00:29:17;98737.75;;;10.30;100.00
47670;BME280;33408;52.062;11.722;2023-03-14T00:31:43;98731.34;;;10.38;100.00
47670;BME280;33408;52.062;11.722;2023-03-14T00:34:10;98740.28;;;10.31;100.00
47670;BME280;33408;52.062;11.722;2023-03-14T00:36:37;98734.56;;;10.25;100.00
47670;BME280;33408;52.062;11.722;2023-03-14T00:39:03;98732.50;;;10.31;100.00
47670;BME280;33408;52.062;11.722;2023-03-14T00:41:30;98742.81;;;10.33;100.00
47670;BME280;33408;52.062;11.722;2023-03-14T00:43:56;98761.22;;;10.27;100.00
47670;BME280;33408;52.062;11.722;2023-03-14T00:46:24;98763.50;;;10.15;100.00
47670;BME280;33408;52.062;11.722;2023-03-14T00:48:51;98769.66;;;10.13;100.00
47670;BME280;33408;52.062;11.722;2023-03-14T00:51:17;98769.81;;;10.10;100.00
47670;BME280;33408;52.062;11.722;2023-03-14T00:53:44;98789.53;;;10.12;100.00
47670;BME280;33408;52.062;11.722;2023-03-14T00:56:12;98803.41;;;10.11;100.00
47670;BME280;33408;52.062;11.722;2023-03-14T00:58:39;98815.56;;;10.09;100.00
47670;BME280;33408;52.062;11.722;2023-03-14T01:01:06;98817.38;;;10.07;100.00
47670;BME280;33408;52.062;11.722;2023-03-14T01:03:35;98816.69;;;10.03;100.00
47670;BME280;33408;52.062;11.722;2023-03-14T01:06:10;98811.03;;;10.14;100.00
47670;BME280;33408;52.062;11.722;2023-03-14T01:08:36;98803.34;;;10.13;100.00
47670;BME280;33408;52.062;11.722;2023-03-14T01:11:06;98799.81;;;10.14;100.00
47670;BME280;33408;52.062;11.722;2023-03-14T01:13:33;98804.22;;;10.12;100.00
47670;BME280;33408;52.062;11.722;2023-03-14T01:16:02;98811.38;;;10.07;100.00
47670;BME280;33408;52.062;11.722;2023-03-14T01:18:29;98817.47;;;10.06;100.00
47670;BME280;33408;52.062;11.722;2023-03-14T01:20:57;98825.97;;;10.08;100.00
47670;BME280;33408;52.062;11.722;2023-03-14T01:23:24;98820.06;;;10.06;100.00
47670;BME280;33408;52.062;11.722;2023-03-14T01:25:50;98811.31;;;10.08;100.00
47670;BME280;33408;52.062;11.722;2023-03-14T01:28:17;98804.66;;;10.02;100.00
47670;BME280;33408;52.062;11.722;2023-03-14T01:30:44;98816.00;;;10.00;100.00
47670;BME280;33408;52.062;11.722;2023-03-14T01:33:10;98813.44;;;10.00;100.00
47670;BME280;33408;52.062;11.722;2023-03-14T01:35:38;98817.38;;;10.07;100.00
47670;BME280;33408;52.062;11.722;2023-03-14T01:38:06;98816.56;;;10.07;100.00
47670;BME280;33408;52.062;11.722;2023-03-14T01:40:32;98820.25;;;10.01;100.00
47670;BME280;33408;52.062;11.722;2023-03-14T01:43:06;98806.56;;;9.99;100.00
47670;BME280;33408;52.062;11.722;2023-03-14T01:46:16;98814.41;;;9.97;100.00
47670;BME280;33408;52.062;11.722;2023-03-14T01:48:47;98801.53;;;9.96;100.00
47670;BME280;33408;52.062;11.722;2023-03-14T01:51:19;98802.34;;;9.96;100.00
47670;BME280;33408;52.062;11.722;2023-03-14T01:53:48;98800.47;;;10.00;100.00
47670;BME280;33408;52.062;11.722;2023-03-14T01:56:16;98795.25;;;10.01;100.00
47670;BME280;33408;52.062;11.722;2023-03-14T01:58:47;98782.38;;;10.00;100.00
47670;BME280;33408;52.062;11.722;2023-03-14T02:01:16;98763.78;;;10.09;100.00
47670;BME280;33408;52.062;11.722;2023-03-14T02:03:47;98772.13;;;10.16;100.00
47670;BME280;33408;52.062;11.722;2023-03-14T02:06:14;98757.34;;;10.18;100.00
47670;BME280;33408;52.062;11.722;2023-03-14T02:08:43;98750.41;;;10.18;100.00
47670;BME280;33408;52.062;11.722;2023-03-14T02:11:16;98752.22;;;10.16;100.00
47670;BME280;33408;52.062;11.722;2023-03-14T02:13:43;98741.13;;;10.14;100.00
47670;BME280;33408;52.062;11.722;2023-03-14T02:16:10;98733.66;;;10.26;100.00
47670;BME280;33408;52.062;11.722;2023-03-14T02:18:37;98723.13;;;10.29;100.00
47670;BME280;33408;52.062;11.722;2023-03-14T02:21:11;98716.50;;;10.23;100.00
47670;BME280;33408;52.062;11.722;2023-03-14T02:23:45;98723.97;;;10.12;100.00
47670;BME280;33408;52.062;11.722;2023-03-14T02:26:17;98713.09;;;10.05;100.00
47670;BME280;33408;52.062;11.722;2023-03-14T02:28:49;98709.81;;;10.01;100.00
47670;BME280;33408;52.062;11.722;2023-03-14T02:31:18;98703.38;;;9.91;100.00
47670;BME280;33408;52.062;11.722;2023-03-14T02:33:46;98705.38;;;9.86;100.00
47670;BME280;33408;52.062;11.722;2023-03-14T02:36:14;98701.88;;;9.87;100.00
47670;BME280;33408;52.062;11.722;2023-03-14T02:38:45;98711.22;;;9.90;100.00
47670;BME280;33408;52.062;11.722;2023-03-14T02:41:13;98714.56;;;9.92;100.00
47670;BME280;33408;52.062;11.722;2023-03-14T02:43:40;98713.53;;;9.96;100.00
47670;BME280;33408;52.062;11.722;2023-03-14T02:46:10;98684.38;;;9.92;100.00
47670;BME280;33408;52.062;11.722;2023-03-14T02:48:40;98701.78;;;10.06;100.00
47670;BME280;33408;52.062;11.722;2023-03-14T02:51:10;98696.25;;;10.14;100.00
47670;BME280;33408;52.062;11.722;2023-03-14T02:53:37;98698.69;;;10.17;100.00
47670;BME280;33408;52.062;11.722;2023-03-14T02:56:06;98695.81;;;10.23;100.00
47670;BME280;33408;52.062;11.722;2023-03-14T02:58:32;98689.16;;;10.17;100.00
47670;BME280;33408;52.062;11.722;2023-03-14T03:00:59;98680.03;;;10.10;100.00
47670;BME280;33408;52.062;11.722;2023-03-14T03:03:27;98683.53;;;10.09;100.00
47670;BME280;33408;52.062;11.722;2023-03-14T03:05:55;98678.50;;;10.06;100.00
47670;BME280;33408;52.062;11.722;2023-03-14T03:08:24;98665.09;;;10.15;100.00
47670;BME280;33408;52.062;11.722;2023-03-14T03:10:51;98670.34;;;10.14;100.00
47670;BME280;33408;52.062;11.722;2023-03-14T03:13:18;98684.31;;;10.11;100.00
47670;BME280;33408;52.062;11.722;2023-03-14T03:15:45;98688.34;;;10.17;100.00
47670;BME280;33408;52.062;11.722;2023-03-14T03:18:12;98675.16;;;10.21;100.00
47670;BME280;33408;52.062;11.722;2023-03-14T03:20:40;98662.59;;;10.14;100.00
47670;BME280;33408;52.062;11.722;2023-03-14T03:23:07;98664.13;;;10.00;100.00
47670;BME280;33408;52.062;11.722;2023-03-14T03:25:33;98665.03;;;9.99;100.00
47670;BME280;33408;52.062;11.722;2023-03-14T03:28:01;98674.25;;;10.05;100.00
47670;BME280;33408;52.062;11.722;2023-03-14T03:30:33;98678.91;;;9.98;100.00
47670;BME280;33408;52.062;11.722;2023-03-14T03:32:59;98684.50;;;9.89;100.00
47670;BME280;33408;52.062;11.722;2023-03-14T03:35:26;98682.84;;;9.88;100.00
47670;BME280;33408;52.062;11.722;2023-03-14T03:37:54;98697.53;;;9.88;100.00
47670;BME280;33408;52.062;11.722;2023-03-14T03:40:20;98696.13;;;9.80;100.00
47670;BME280;33408;52.062;11.722;2023-03-14T03:42:47;98685.34;;;9.90;100.00
47670;BME280;33408;52.062;11.722;2023-03-14T03:45:13;98671.66;;;9.88;100.00
47670;BME280;33408;52.062;11.722;2023-03-14T03:47:40;98653.59;;;9.86;100.00
47670;BME280;33408;52.062;11.722;2023-03-14T03:50:08;98659.75;;;9.83;100.00
47670;BME280;33408;52.062;11.722;2023-03-14T03:52:34;98658.09;;;9.82;100.00
47670;BME280;33408;52.062;11.722;2023-03-14T03:55:03;98657.63;;;9.92;100.00
47670;BME280;33408;52.062;11.722;2023-03-14T03:57:29;98655.81;;;9.94;100.00
47670;BME280;33408;52.062;11.722;2023-03-14T03:59:56;98660.44;;;10.04;100.00
47670;BME280;33408;52.062;11.722;2023-03-14T04:02:23;98660.94;;;10.13;100.00
47670;BME280;33408;52.062;11.722;2023-03-14T04:04:50;98664.28;;;10.15;100.00
47670;BME280;33408;52.062;11.722;2023-03-14T04:07:16;98671.97;;;10.16;100.00
47670;BME280;33408;52.062;11.722;2023-03-14T04:09:43;98682.31;;;10.16;100.00
47670;BME280;33408;52.062;11.722;2023-03-14T04:12:11;98680.09;;;10.09;100.00
47670;BME280;33408;52.062;11.722;2023-03-14T04:14:38;98687.66;;;10.13;100.00
47670;BME280;33408;52.062;11.722;2023-03-14T04:17:06;98678.69;;;10.03;100.00
47670;BME280;33408;52.062;11.722;2023-03-14T04:19:32;98678.03;;;9.98;100.00
47670;BME280;33408;52.062;11.722;2023-03-14T04:21:59;98683.22;;;9.98;100.00
47670;BME280;33408;52.062;11.722;2023-03-14T04:24:26;98682.00;;;9.88;100.00
47670;BME280;33408;52.062;11.722;2023-03-14T04:26:52;98683.84;;;9.85;100.00
47670;BME280;33408;52.062;11.722;2023-03-14T04:29:20;98688.47;;;9.79;100.00
47670;BME280;33408;52.062;11.722;2023-03-14T04:31:47;98678.66;;;9.85;100.00
47670;BME280;33408;52.062;11.722;2023-03-14T04:34:13;98666.47;;;9.88;100.00
47670;BME280;33408;52.062;11.722;2023-03-14T04:36:40;98667.22;;;9.90;100.00
47670;BME280;33408;52.062;11.722;2023-03-14T04:39:06;98667.22;;;9.90;100.00
47670;BME280;33408;52.062;11.722;2023-03-14T04:41:33;98661.75;;;9.96;100.00
47670;BME280;33408;52.062;11.722;2023-03-14T04:43:59;98653.25;;;9.94;100.00
47670;BME280;33408;52.062;11.722;2023-03-14T04:46:27;98637.03;;;9.90;100.00
47670;BME280;33408;52.062;11.722;2023-03-14T04:48:54;98649.66;;;9.79;100.00
47670;BME280;33408;52.062;11.722;2023-03-14T04:51:21;98649.56;;;9.80;100.00
47670;BME280;33408;52.062;11.722;2023-03-14T04:53:52;98647.81;;;9.81;100.00
47670;BME280;33408;52.062;11.722;2023-03-14T04:56:19;98644.31;;;9.82;100.00
47670;BME280;33408;52.062;11.722;2023-03-14T04:58:46;98639.91;;;9.84;100.00
47670;BME280;33408;52.062;11.722;2023-03-14T05:01:12;98632.22;;;9.82;100.00
47670;BME280;33408;52.062;11.722;2023-03-14T05:03:40;98629.94;;;9.76;100.00
47670;BME280;33408;52.062;11.722;2023-03-14T05:06:07;98629.47;;;9.68;100.00
47670;BME280;33408;52.062;11.722;2023-03-14T05:08:34;98631.69;;;9.76;100.00
47670;BME280;33408;52.062;11.722;2023-03-14T05:11:00;98625.28;;;9.83;100.00
47670;BME280;33408;52.062;11.722;2023-03-14T05:13:28;98614.34;;;9.95;100.00
47670;BME280;33408;52.062;11.722;2023-03-14T05:16:03;98618.44;;;9.99;100.00
47670;BME280;33408;52.062;11.722;2023-03-14T05:18:29;98606.03;;;10.06;100.00
47670;BME280;33408;52.062;11.722;2023-03-14T05:20:57;98607.56;;;10.10;100.00
47670;BME280;33408;52.062;11.722;2023-03-14T05:23:24;98613.16;;;10.18;100.00
47670;BME280;33408;52.062;11.722;2023-03-14T05:25:50;98603.13;;;10.12;100.00
47670;BME280;33408;52.062;11.722;2023-03-14T05:28:17;98605.72;;;10.12;100.00
47670;BME280;33408;52.062;11.722;2023-03-14T05:30:44;98598.50;;;10.01;100.00
47670;BME280;33408;52.062;11.722;2023-03-14T05:33:10;98605.72;;;9.95;100.00
47670;BME280;33408;52.062;11.722;2023-03-14T05:35:37;98596.44;;;9.91;100.00
47670;BME280;33408;52.062;11.722;2023-03-14T05:38:05;98600.88;;;9.89;100.00
47670;BME280;33408;52.062;11.722;2023-03-14T05:40:31;98599.78;;;9.93;100.00
47670;BME280;33408;52.062;11.722;2023-03-14T05:42:58;98604.50;;;9.84;100.00
47670;BME280;33408;52.062;11.722;2023-03-14T05:45:25;98601.03;;;9.85;100.00
47670;BME280;33408;52.062;11.722;2023-03-14T05:47:51;98593.03;;;9.90;100.00
47670;BME280;33408;52.062;11.722;2023-03-14T05:50:18;98590.53;;;9.89;100.00
47670;BME280;33408;52.062;11.722;2023-03-14T05:52:44;98592.25;;;9.88;100.00
47670;BME280;33408;52.062;11.722;2023-03-14T05:55:12;98592.84;;;9.93;100.00
47670;BME280;33408;52.062;11.722;2023-03-14T05:57:39;98591.13;;;9.94;100.00
47670;BME280;33408;52.062;11.722;2023-03-14T06:00:07;98592.41;;;10.02;100.00
47670;BME280;33408;52.062;11.722;2023-03-14T06:02:33;98596.59;;;10.05;100.00
47670;BME280;33408;52.062;11.722;2023-03-14T06:05:00;98593.78;;;10.10;100.00
47670;BME280;33408;52.062;11.722;2023-03-14T06:07:26;98591.50;;;10.03;100.00
47670;BME280;33408;52.062;11.722;2023-03-14T06:09:53;98588.75;;;10.07;100.00
47670;BME280;33408;52.062;11.722;2023-03-14T06:12:22;98591.41;;;10.05;100.00
47670;BME280;33408;52.062;11.722;2023-03-14T06:14:49;98590.34;;;10.09;100.00
47670;BME280;33408;52.062;11.722;2023-03-14T06:17:16;98593.53;;;10.14;100.00
47670;BME280;33408;52.062;11.722;2023-03-14T06:19:42;98609.97;;;10.13;100.00
47670;BME280;33408;52.062;11.722;2023-03-14T06:22:09;98597.94;;;10.12;100.00
47670;BME280;33408;52.062;11.722;2023-03-14T06:24:35;98601.41;;;10.13;100.00
47670;BME280;33408;52.062;11.722;2023-03-14T06:27:02;98606.31;;;10.17;100.00
47670;BME280;33408;52.062;11.722;2023-03-14T06:29:30;98608.00;;;10.18;100.00
47670;BME280;33408;52.062;11.722;2023-03-14T06:31:57;98610.44;;;10.21;100.00
47670;BME280;33408;52.062;11.722;2023-03-14T06:34:23;98614.22;;;10.32;100.00
47670;BME280;33408;52.062;11.722;2023-03-14T06:36:50;98613.19;;;10.36;100.00
47670;BME280;33408;52.062;11.722;2023-03-14T06:39:17;98612.13;;;10.40;100.00
47670;BME280;33408;52.062;11.722;2023-03-14T06:41:45;98615.16;;;10.48;100.00
47670;BME280;33408;52.062;11.722;2023-03-14T06:44:11;98624.50;;;10.51;100.00
47670;BME280;33408;52.062;11.722;2023-03-14T06:46:41;98633.88;;;10.53;100.00
47670;BME280;33408;52.062;11.722;2023-03-14T06:49:07;98630.34;;;10.54;100.00
47670;BME280;33408;52.062;11.722;2023-03-14T06:51:34;98629.78;;;10.65;100.00
47670;BME280;33408;52.062;11.722;2023-03-14T06:54:00;98626.28;;;10.66;100.00
47670;BME280;33408;52.062;11.722;2023-03-14T06:56:27;98620.44;;;10.63;100.00
47670;BME280;33408;52.062;11.722;2023-03-14T06:58:53;98622.84;;;10.66;100.00
47670;BME280;33408;52.062;11.722;2023-03-14T07:01:23;98629.19;;;10.60;100.00
47670;BME280;33408;52.062;11.722;2023-03-14T07:03:51;98638.50;;;10.64;100.00
47670;BME280;33408;52.062;11.722;2023-03-14T07:06:18;98635.63;;;10.69;100.00
47670;BME280;33408;52.062;11.722;2023-03-14T07:08:44;98638.31;;;10.67;100.00
47670;BME280;33408;52.062;11.722;2023-03-14T07:11:11;98641.75;;;10.68;100.00
47670;BME280;33408;52.062;11.722;2023-03-14T07:13:38;98643.56;;;10.66;100.00
47670;BME280;33408;52.062;11.722;2023-03-14T07:16:06;98644.13;;;10.72;100.00
47670;BME280;33408;52.062;11.722;2023-03-14T07:18:33;98641.09;;;10.64;100.00
47670;BME280;33408;52.062;11.722;2023-03-14T07:21:00;98652.88;;;10.70;100.00
47670;BME280;33408;52.062;11.722;2023-03-14T07:23:27;98637.91;;;10.75;100.00
47670;BME280;33408;52.062;11.722;2023-03-14T07:25:55;98643.38;;;10.86;100.00
47670;BME280;33408;52.062;11.722;2023-03-14T07:28:21;98642.06;;;10.95;100.00
47670;BME280;33408;52.062;11.722;2023-03-14T07:30:48;98640.78;;;11.02;100.00
47670;BME280;33408;52.062;11.722;2023-03-14T07:33:15;98624.41;;;11.02;100.00
47670;BME280;33408;52.062;11.722;2023-03-14T07:35:42;98621.25;;;10.97;100.00
47670;BME280;33408;52.062;11.722;2023-03-14T07:38:10;98611.53;;;11.00;100.00
47670;BME280;33408;52.062;11.722;2023-03-14T07:40:36;98616.53;;;11.35;100.00
47670;BME280;33408;52.062;11.722;2023-03-14T07:43:03;98613.88;;;11.37;100.00
47670;BME280;33408;52.062;11.722;2023-03-14T07:45:29;98616.94;;;11.59;100.00
47670;BME280;33408;52.062;11.722;2023-03-14T07:47:56;98611.97;;;11.71;100.00
47670;BME280;33408;52.062;11.722;2023-03-14T07:50:23;98609.19;;;11.88;100.00
47670;BME280;33408;52.062;11.722;2023-03-14T07:52:49;98616.41;;;11.99;100.00
47670;BME280;33408;52.062;11.722;2023-03-14T07:55:17;98613.16;;;11.95;100.00
47670;BME280;33408;52.062;11.722;2023-03-14T07:57:44;98621.31;;;11.73;100.00
47670;BME280;33408;52.062;11.722;2023-03-14T08:00:12;98626.91;;;11.81;100.00
47670;BME280;33408;52.062;11.722;2023-03-14T08:02:39;98625.84;;;11.70;100.00
47670;BME280;33408;52.062;11.722;2023-03-14T08:05:06;98623.31;;;11.84;100.00
47670;BME280;33408;52.062;11.722;2023-03-14T08:07:33;98628.31;;;11.87;100.00
47670;BME280;33408;52.062;11.722;2023-03-14T08:09:59;98631.44;;;11.94;100.00
47670;BME280;33408;52.062;11.722;2023-03-14T08:12:27;98621.81;;;12.10;100.00
47670;BME280;33408;52.062;11.722;2023-03-14T08:14:54;98622.53;;;12.12;100.00
47670;BME280;33408;52.062;11.722;2023-03-14T08:17:21;98617.19;;;12.15;100.00
47670;BME280;33408;52.062;11.722;2023-03-14T08:19:47;98618.84;;;12.16;100.00
47670;BME280;33408;52.062;11.722;2023-03-14T08:22:14;98613.94;;;12.26;100.00
47670;BME280;33408;52.062;11.722;2023-03-14T08:24:40;98604.47;;;12.25;100.00
47670;BME280;33408;52.062;11.722;2023-03-14T08:27:07;98607.84;;;12.27;100.00
47670;BME280;33408;52.062;11.722;2023-03-14T08:29:35;98609.50;;;12.28;100.00
47670;BME280;33408;52.062;11.722;2023-03-14T08:32:02;98592.81;;;12.32;100.00
47670;BME280;33408;52.062;11.722;2023-03-14T08:34:28;98592.91;;;12.45;100.00
47670;BME280;33408;52.062;11.722;2023-03-14T08:36:55;98594.78;;;12.43;100.00
47670;BME280;33408;52.062;11.722;2023-03-14T08:39:22;98579.28;;;12.56;100.00
47670;BME280;33408;52.062;11.722;2023-03-14T08:41:49;98588.25;;;12.65;100.00
47670;BME280;33408;52.062;11.722;2023-03-14T08:44:16;98579.34;;;12.54;100.00
47670;BME280;33408;52.062;11.722;2023-03-14T08:46:44;98577.69;;;12.53;100.00
47670;BME280;33408;52.062;11.722;2023-03-14T08:49:10;98574.72;;;12.59;100.00
47670;BME280;33408;52.062;11.722;2023-03-14T08:51:37;98575.09;;;12.53;100.00
47670;BME280;33408;52.062;11.722;2023-03-14T08:54:04;98576.19;;;12.64;100.00
47670;BME280;33408;52.062;11.722;2023-03-14T08:56:30;98570.78;;;12.67;100.00
47670;BME280;33408;52.062;11.722;2023-03-14T08:58:57;98575.44;;;12.62;100.00
47670;BME280;33408;52.062;11.722;2023-03-14T09:01:23;98577.84;;;12.65;100.00
47670;BME280;33408;52.062;11.722;2023-03-14T09:03:52;98569.78;;;12.69;100.00
47670;BME280;33408;52.062;11.722;2023-03-14T09:06:19;98568.63;;;12.88;100.00
47670;BME280;33408;52.062;11.722;2023-03-14T09:08:45;98569.34;;;13.31;100.00
47670;BME280;33408;52.062;11.722;2023-03-14T09:11:13;98576.41;;;13.57;100.00
47670;BME280;33408;52.062;11.722;2023-03-14T09:13:39;98581.97;;;13.78;100.00
47670;BME280;33408;52.062;11.722;2023-03-14T09:16:07;98589.22;;;13.60;100.00
47670;BME280;33408;52.062;11.722;2023-03-14T09:18:34;98586.88;;;13.42;100.00
47670;BME280;33408;52.062;11.722;2023-03-14T09:21:02;98602.28;;;13.18;100.00
47670;BME280;33408;52.062;11.722;2023-03-14T09:23:29;98598.13;;;13.16;100.00
47670;BME280;33408;52.062;11.722;2023-03-14T09:25:56;98598.69;;;13.06;100.00
47670;BME280;33408;52.062;11.722;2023-03-14T09:28:23;98603.41;;;13.14;100.00
47670;BME280;33408;52.062;11.722;2023-03-14T09:30:50;98598.66;;;13.21;100.00
47670;BME280;33408;52.062;11.722;2023-03-14T09:33:17;98595.91;;;13.09;100.00
47670;BME280;33408;52.062;11.722;2023-03-14T09:35:44;98602.81;;;12.96;100.00
47670;BME280;33408;52.062;11.722;2023-03-14T09:38:12;98602.81;;;12.96;100.00
47670;BME280;33408;52.062;11.722;2023-03-14T09:40:38;98606.50;;;12.92;100.00
47670;BME280;33408;52.062;11.722;2023-03-14T09:43:05;98604.06;;;13.03;100.00
47670;BME280;33408;52.062;11.722;2023-03-14T09:45:34;98604.03;;;13.18;100.00
47670;BME280;33408;52.062;11.722;2023-03-14T09:48:03;98607.19;;;13.23;100.00
47670;BME280;33408;52.062;11.722;2023-03-14T09:50:33;98606.78;;;13.29;100.00
47670;BME280;33408;52.062;11.722;2023-03-14T09:53:03;98600.88;;;13.27;100.00
47670;BME280;33408;52.062;11.722;2023-03-14T09:55:32;98610.75;;;13.22;100.00
47670;BME280;33408;52.062;11.722;2023-03-14T09:58:02;98608.97;;;13.22;100.00
47670;BME280;33408;52.062;11.722;2023-03-14T10:00:31;98610.50;;;13.25;100.00
47670;BME280;33408;52.062;11.722;2023-03-14T10:03:00;98618.13;;;13.28;100.00
47670;BME280;33408;52.062;11.722;2023-03-14T10:05:33;98605.13;;;13.28;100.00
47670;BME280;33408;52.062;11.722;2023-03-14T10:08:00;98602.31;;;13.45;100.00
47670;BME280;33408;52.062;11.722;2023-03-14T10:10:26;98595.59;;;13.56;100.00
47670;BME280;33408;52.062;11.722;2023-03-14T10:12:57;98597.28;;;13.70;100.00
47670;BME280;33408;52.062;11.722;2023-03-14T10:15:26;98592.41;;;13.91;100.00
47670;BME280;33408;52.062;11.722;2023-03-14T10:17:53;98588.34;;;13.74;100.00
47670;BME280;33408;52.062;11.722;2023-03-14T10:20:28;98587.28;;;13.76;100.00
47670;BME280;33408;52.062;11.722;2023-03-14T10:22:58;98585.44;;;13.78;100.00
47670;BME280;33408;52.062;11.722;2023-03-14T10:25:27;98582.81;;;13.78;100.00
47670;BME280;33408;52.062;11.722;2023-03-14T10:27:55;98589.34;;;13.71;100.00
47670;BME280;33408;52.062;11.722;2023-03-14T10:30:33;98593.56;;;13.86;100.00
47670;BME280;33408;52.062;11.722;2023-03-14T10:33:10;98595.22;;;13.88;100.00
47670;BME280;33408;52.062;11.722;2023-03-14T10:35:37;98590.09;;;13.73;100.00
47670;BME280;33408;52.062;11.722;2023-03-14T10:38:04;98596.69;;;13.92;100.00
47670;BME280;33408;52.062;11.722;2023-03-14T10:40:32;98608.06;;;14.16;100.00
47670;BME280;33408;52.062;11.722;2023-03-14T10:43:03;98596.09;;;14.01;100.00
47670;BME280;33408;52.062;11.722;2023-03-14T10:45:33;98595.25;;;14.13;100.00
47670;BME280;33408;52.062;11.722;2023-03-14T10:48:15;98592.75;;;14.12;100.00
47670;BME280;33408;52.062;11.722;2023-03-14T10:50:48;98592.28;;;13.79;100.00
47670;BME280;33408;52.062;11.722;2023-03-14T10:53:17;98596.06;;;13.88;100.00
47670;BME280;33408;52.062;11.722;2023-03-14T10:55:44;98600.44;;;13.88;100.00
47670;BME280;33408;52.062;11.722;2023-03-14T10:58:20;98601.63;;;14.22;100.00
47670;BME280;33408;52.062;11.722;2023-03-14T11:00:50;98603.69;;;13.91;100.00
47670;BME280;33408;52.062;11.722;2023-03-14T11:03:18;98604.78;;;13.74;100.00
47670;BME280;33408;52.062;11.722;2023-03-14T11:05:52;98601.81;;;13.53;100.00
47670;BME280;33408;52.062;11.722;2023-03-14T11:08:24;98610.38;;;13.68;100.00
47670;BME280;33408;52.062;11.722;2023-03-14T11:10:54;98601.66;;;13.69;100.00
47670;BME280;33408;52.062;11.722;2023-03-14T11:13:29;98614.69;;;13.82;100.00
47670;BME280;33408;52.062;11.722;2023-03-14T11:16:07;98616.69;;;13.78;100.00
47670;BME280;33408;52.062;11.722;2023-03-14T11:18:54;98608.41;;;13.59;100.00
47670;BME280;33408;52.062;11.722;2023-03-14T11:21:29;98606.25;;;13.38;100.00
47670;BME280;33408;52.062;11.722;2023-03-14T11:24:06;98607.13;;;13.52;100.00
47670;BME280;33408;52.062;11.722;2023-03-14T11:26:42;98613.38;;;13.62;100.00
47670;BME280;33408;52.062;11.722;2023-03-14T11:29:20;98610.47;;;13.66;100.00
47670;BME280;33408;52.062;11.722;2023-03-14T11:31:47;98600.13;;;13.92;100.00
47670;BME280;33408;52.062;11.722;2023-03-14T11:34:17;98598.56;;;13.90;100.00
47670;BME280;33408;52.062;11.722;2023-03-14T11:36:51;98590.47;;;14.07;100.00
47670;BME280;33408;52.062;11.722;2023-03-14T11:39:20;98590.44;;;14.46;100.00
47670;BME280;33408;52.062;11.722;2023-03-14T11:41:49;98597.53;;;14.56;100.00
47670;BME280;33408;52.062;11.722;2023-03-14T11:44:20;98586.28;;;14.69;100.00
47670;BME280;33408;52.062;11.722;2023-03-14T11:46:51;98596.91;;;14.79;100.00
47670;BME280;33408;52.062;11.722;2023-03-14T11:49:27;98590.88;;;15.15;100.00
47670;BME280;33408;52.062;11.722;2023-03-14T11:51:59;98594.09;;;15.43;100.00
47670;BME280;33408;52.062;11.722;2023-03-14T11:54:33;98585.22;;;15.08;100.00
47670;BME280;33408;52.062;11.722;2023-03-14T11:57:03;98590.75;;;14.80;100.00
47670;BME280;33408;52.062;11.722;2023-03-14T11:59:41;98597.88;;;14.65;100.00
47670;BME280;33408;52.062;11.722;2023-03-14T12:02:16;98602.22;;;14.51;100.00
47670;BME280;33408;52.062;11.722;2023-03-14T12:04:55;98591.19;;;14.48;100.00
47670;BME280;33408;52.062;11.722;2023-03-14T12:07:29;98591.31;;;14.33;100.00
47670;BME280;33408;52.062;11.722;2023-03-14T12:10:02;98583.06;;;14.27;100.00
47670;BME280;33408;52.062;11.722;2023-03-14T12:12:30;98586.72;;;14.11;100.00
47670;BME280;33408;52.062;11.722;2023-03-14T12:14:59;98579.41;;;14.03;100.00
47670;BME280;33408;52.062;11.722;2023-03-14T12:17:34;98580.75;;;13.96;100.00
47670;BME280;33408;52.062;11.722;2023-03-14T12:20:04;98577.31;;;13.83;100.00
47670;BME280;33408;52.062;11.722;2023-03-14T12:22:34;98566.78;;;13.84;100.00
47670;BME280;33408;52.062;11.722;2023-03-14T12:25:05;98579.72;;;14.12;100.00
47670;BME280;33408;52.062;11.722;2023-03-14T12:28:03;98574.59;;;14.10;100.00
47670;BME280;33408;52.062;11.722;2023-03-14T12:30:33;98576.38;;;14.22;100.00
47670;BME280;33408;52.062;11.722;2023-03-14T12:33:28;98571.88;;;13.99;100.00
47670;BME280;33408;52.062;11.722;2023-03-14T12:36:04;98565.03;;;13.98;100.00
47670;BME280;33408;52.062;11.722;2023-03-14T12:38:48;98568.88;;;14.05;100.00
47670;BME280;33408;52.062;11.722;2023-03-14T12:41:20;98563.75;;;14.55;100.00
47670;BME280;33408;52.062;11.722;2023-03-14T12:43:49;98552.63;;;14.27;100.00
47670;BME280;33408;52.062;11.722;2023-03-14T12:46:25;98558.47;;;14.05;100.00
47670;BME280;33408;52.062;11.722;2023-03-14T12:49:03;98557.84;;;14.01;100.00
47670;BME280;33408;52.062;11.722;2023-03-14T12:51:36;98553.34;;;14.03;100.00